地図

経路データ

SID SEASON NUMBER BASIN SUBBASIN NAME ISO_TIME NATURE LAT LON WMO_WIND WMO_PRES WMO_AGENCY TRACK_TYPE DIST2LAND LANDFALL IFLAG USA_AGENCY USA_ATCF_ID USA_LAT USA_LON USA_RECORD USA_STATUS USA_WIND USA_PRES USA_SSHS USA_R34_NE USA_R34_SE USA_R34_SW USA_R34_NW USA_R50_NE USA_R50_SE USA_R50_SW USA_R50_NW USA_R64_NE USA_R64_SE USA_R64_SW USA_R64_NW USA_POCI USA_ROCI USA_RMW USA_EYE TOKYO_LAT TOKYO_LON TOKYO_GRADE TOKYO_WIND TOKYO_PRES TOKYO_R50_DIR TOKYO_R50_LONG TOKYO_R50_SHORT TOKYO_R30_DIR TOKYO_R30_LONG TOKYO_R30_SHORT TOKYO_LAND CMA_LAT CMA_LON CMA_CAT CMA_WIND CMA_PRES HKO_LAT HKO_LON HKO_CAT HKO_WIND HKO_PRES NEWDELHI_LAT NEWDELHI_LON NEWDELHI_GRADE NEWDELHI_WIND NEWDELHI_PRES NEWDELHI_CI NEWDELHI_DP NEWDELHI_POCI REUNION_LAT REUNION_LON REUNION_TYPE REUNION_WIND REUNION_PRES REUNION_TNUM REUNION_CI REUNION_RMW REUNION_R34_NE REUNION_R34_SE REUNION_R34_SW REUNION_R34_NW REUNION_R50_NE REUNION_R50_SE REUNION_R50_SW REUNION_R50_NW REUNION_R64_NE REUNION_R64_SE REUNION_R64_SW REUNION_R64_NW BOM_LAT BOM_LON BOM_TYPE BOM_WIND BOM_PRES BOM_TNUM BOM_CI BOM_RMW BOM_R34_NE BOM_R34_SE BOM_R34_SW BOM_R34_NW BOM_R50_NE BOM_R50_SE BOM_R50_SW BOM_R50_NW BOM_R64_NE BOM_R64_SE BOM_R64_SW BOM_R64_NW BOM_ROCI BOM_POCI BOM_EYE BOM_POS_METHOD BOM_PRES_METHOD NADI_LAT NADI_LON NADI_CAT NADI_WIND NADI_PRES WELLINGTON_LAT WELLINGTON_LON WELLINGTON_WIND WELLINGTON_PRES DS824_LAT DS824_LON DS824_STAGE DS824_WIND DS824_PRES TD9636_LAT TD9636_LON TD9636_STAGE TD9636_WIND TD9636_PRES TD9635_LAT TD9635_LON TD9635_WIND TD9635_PRES TD9635_ROCI NEUMANN_LAT NEUMANN_LON NEUMANN_CLASS NEUMANN_WIND NEUMANN_PRES MLC_LAT MLC_LON MLC_CLASS MLC_WIND MLC_PRES USA_GUST BOM_GUST BOM_GUST_PER REUNION_GUST REUNION_GUST_PER USA_SEAHGT USA_SEARAD_NE USA_SEARAD_SE USA_SEARAD_SW USA_SEARAD_NW STORM_SPEED STORM_DIR
1930294N08086 1930 51 NI BB NOT_NAMED 1930-10-21 00:00:00 TS 7.90000 86.3000 main 495 476 _________O____ -1 7.90000 86.3000 TC 30 6 312
1930294N08086 1930 51 NI BB NOT_NAMED 1930-10-21 03:00:00 TS 8.10839 86.0634 main 477 447 _________PO___ -1 8.21258 85.9452 TC 30 7.90000 86.3000 1 7 311
1930294N08086 1930 51 NI BB NOT_NAMED 1930-10-21 06:00:00 TS 8.36562 85.7550 main 449 420 _________OP___ -1 8.50000 85.6000 TC 30 8.16406 85.9875 1 8 309
1930294N08086 1930 51 NI BB NOT_NAMED 1930-10-21 09:00:00 TS 8.61385 85.4341 main 412 387 _________PP___ -1 8.74992 85.2649 TC 30 8.43242 85.6598 1 8 307
1930294N08086 1930 51 NI BB NOT_NAMED 1930-10-21 12:00:00 TS 8.85479 85.1012 main 391 360 _________OP___ -1 9.00000 84.9000 TC 30 8.70958 85.3023 1 9 306
1930294N08086 1930 51 NI BB NOT_NAMED 1930-10-21 15:00:00 TS 9.15000 84.6825 main 360 326 _________PO___ -1 9.30000 84.4650 TC 30 9.00000 84.9000 1 11 305
1930294N08086 1930 51 NI BB NOT_NAMED 1930-10-21 18:00:00 TS 9.45183 84.2233 main 331 301 _________OP___ -1 9.60000 84.0000 TC 30 9.30367 84.4466 1 11 303
1930294N08086 1930 51 NI BB NOT_NAMED 1930-10-21 21:00:00 TS 9.74145 83.7453 main 291 272 _________PP___ -1 9.88004 83.5200 TC 30 9.60286 83.9705 1 11 301
1930294N08086 1930 51 NI BB NOT_NAMED 1930-10-22 00:00:00 TS 9.98779 83.3046 main 272 252 _________OP___ -1 10.1000 83.1000 TC 30 9.87558 83.5091 1 9 298
1930294N08086 1930 51 NI BB NOT_NAMED 1930-10-22 03:00:00 TS 10.1612 82.9599 main 259 236 _________PO___ -1 10.2224 82.8199 TC 31 10.1000 83.1000 1 7 296
1930294N08086 1930 51 NI BB NOT_NAMED 1930-10-22 06:00:00 TS 10.2790 82.6981 main 236 217 _________OP___ -1 10.3000 82.6000 TC 32 10.2581 82.7962 1 6 294
1930294N08086 1930 51 NI BB NOT_NAMED 1930-10-22 09:00:00 TS 10.3872 82.4485 main 214 204 _________PP___ -1 10.4075 82.3500 TC 33 10.3670 82.5471 1 5 292
1930294N08086 1930 51 NI BB NOT_NAMED 1930-10-22 12:00:00 TS 10.4712 82.2122 main 204 188 _________OP___ -1 10.5000 82.1000 TC 34 10.4425 82.3244 1 5 287
1930294N08086 1930 51 NI BB NOT_NAMED 1930-10-22 15:00:00 TS 10.5287 81.9787 main 188 175 _________PO___ -1 10.5575 81.8575 TC 36 10.5000 82.1000 2 5 283
1930294N08086 1930 51 NI BB NOT_NAMED 1930-10-22 18:00:00 TS 10.5863 81.7120 main 175 156 _________OP___ -1 10.6000 81.6000 TC 39 10.5725 81.8240 2 6 282
1930294N08086 1930 51 NI BB NOT_NAMED 1930-10-22 21:00:00 TS 10.6438 81.4212 main 156 131 _________PP___ -1 10.6575 81.3000 TC 42 10.6300 81.5425 2 6 280
1930294N08086 1930 51 NI BB NOT_NAMED 1930-10-23 00:00:00 TS 10.6863 81.1323 main 131 109 _________OP___ -1 10.7000 81.0000 TC 45 10.6725 81.2647 2 5 276
1930294N08086 1930 51 NI BB NOT_NAMED 1930-10-23 03:00:00 TS 10.7037 80.8675 main 109 76 _________PO___ -1 10.7075 80.7350 TC 45 10.7000 81.0000 3 5 273
1930294N08086 1930 51 NI BB NOT_NAMED 1930-10-23 06:00:00 TS 10.7092 80.6303 main 76 54 _________OP___ -1 10.7000 80.5000 TC 45 10.7183 80.7606 3 4 271
1930294N08086 1930 51 NI BB NOT_NAMED 1930-10-23 09:00:00 TS 10.7112 80.4175 main 54 32 _________PP___ -1 10.7000 80.3000 TC 45 10.7224 80.5350 3 4 270
1930294N08086 1930 51 NI BB NOT_NAMED 1930-10-23 12:00:00 TS 10.7076 80.2084 main 32 10 _________OP___ -1 10.7000 80.1000 TC 45 10.7152 80.3169 3 4 269
1930294N08086 1930 51 NI BB NOT_NAMED 1930-10-23 15:00:00 TS 10.7038 79.9750 main 10 0 _________PO___ -1 10.7075 79.8500 TC 41 10.7000 80.1000 3 4 267
1930294N08086 1930 51 NI BB NOT_NAMED 1930-10-23 18:00:00 TS 10.6883 79.7596 main 0 0 _________OP___ -1 10.7000 79.6000 TC 37 10.6795 79.8794 3 4 264
1930294N08086 1930 51 NI BB NOT_NAMED 1930-10-23 21:00:00 TS 10.6571 79.5480 main 0 0 _________PP___ -1 10.6600 79.3875 TC 33 10.6552 79.6550 3 4 260
1930294N08086 1930 51 NI BB NOT_NAMED 1930-10-24 00:00:00 TS 10.6188 79.3521 main 0 0 _________OP___ -1 10.6000 79.2000 TC 30 10.6283 79.4281 3 3 261
1930294N08086 1930 51 NI BB NOT_NAMED 1930-10-24 03:00:00 NR 10.6000 79.2000 main 0 __________O___ -1 TC 10.6000 79.2000 1 3 263

IBTrACS Databaseについて

本データベースは、米国NOAAが公開する1842年以降の世界の熱帯低気圧のベストトラックデータアーカイブInternational Best Track Archive for Climate Stewardship (IBTrACS)を、ウェブで閲覧しやすい形式に変換したものです。

最終更新日:2021-10-21